Time;durP1;ratioP1;P1;durP2;ratioP2;P2;SDS_P1;SDS_P2;PMS_P1;PMS_P2;Temp;Humidity;BMP_temperature;BMP_pressure;BME280_temperature;BME280_humidity;BME280_pressure;Samples;Min_cycle;Max_cycle;Signal;HPM_P1;HPM_P2
2023/08/17 00:00:27;;;;;;;1.55;1.22;;;21.00;99.90;;;;;;964351;145;27349;-74
2023/08/17 00:02:53;;;;;;;1.60;1.50;;;21.00;99.90;;;;;;964069;145;27407;-75
2023/08/17 00:05:20;;;;;;;1.60;1.37;;;21.00;99.90;;;;;;963939;145;27351;-75
2023/08/17 00:07:47;;;;;;;1.75;1.20;;;20.90;99.90;;;;;;964310;146;27329;-75
2023/08/17 00:10:13;;;;;;;1.40;1.25;;;20.90;99.90;;;;;;964316;145;27829;-76
2023/08/17 00:12:40;;;;;;;2.62;1.25;;;20.90;99.90;;;;;;963953;146;27334;-75
2023/08/17 00:15:06;;;;;;;2.25;1.40;;;20.90;99.90;;;;;;963690;146;27335;-74
2023/08/17 00:17:33;;;;;;;1.62;1.30;;;20.90;99.90;;;;;;962914;146;27329;-74
2023/08/17 00:19:59;;;;;;;1.65;1.20;;;20.80;99.90;;;;;;964332;146;27396;-75
2023/08/17 00:22:26;;;;;;;3.67;1.57;;;20.80;99.90;;;;;;964098;146;27349;-74
2023/08/17 00:24:53;;;;;;;2.72;1.62;;;20.80;99.90;;;;;;946978;149;27450;-74
2023/08/17 00:27:19;;;;;;;1.82;1.40;;;20.80;99.90;;;;;;963738;146;27310;-75
2023/08/17 00:29:46;;;;;;;5.03;1.72;;;20.70;99.90;;;;;;964278;146;27412;-76
2023/08/17 00:32:12;;;;;;;1.77;1.65;;;20.70;99.90;;;;;;964079;146;27291;-76
2023/08/17 00:34:39;;;;;;;3.60;1.92;;;20.70;99.90;;;;;;964263;145;27337;-75
2023/08/17 00:37:06;;;;;;;3.17;2.45;;;20.70;99.90;;;;;;964230;146;27309;-74
2023/08/17 00:39:32;;;;;;;3.70;1.67;;;20.70;99.90;;;;;;964524;146;27398;-74
2023/08/17 00:41:59;;;;;;;2.05;1.65;;;20.60;99.90;;;;;;964346;145;27384;-73
2023/08/17 00:44:25;;;;;;;1.72;1.62;;;20.60;99.90;;;;;;964794;145;27886;-76
2023/08/17 00:46:52;;;;;;;2.40;1.70;;;20.60;99.90;;;;;;963723;146;27342;-74
2023/08/17 00:49:19;;;;;;;2.05;1.55;;;20.60;99.90;;;;;;963259;146;27256;-72
2023/08/17 00:51:45;;;;;;;2.83;2.00;;;20.50;99.90;;;;;;964706;146;27339;-73
2023/08/17 00:54:12;;;;;;;4.50;1.80;;;20.50;99.90;;;;;;964252;145;27317;-76
2023/08/17 00:56:38;;;;;;;2.00;1.80;;;20.50;99.90;;;;;;964057;146;27354;-73
2023/08/17 00:59:05;;;;;;;5.55;2.10;;;20.50;99.90;;;;;;963556;146;27288;-74
2023/08/17 01:01:31;;;;;;;1.80;1.60;;;20.40;99.90;;;;;;963559;146;27316;-73
2023/08/17 01:03:58;;;;;;;1.95;1.67;;;20.40;99.90;;;;;;963935;145;27321;-74
2023/08/17 01:06:25;;;;;;;2.52;1.77;;;20.40;99.90;;;;;;957926;146;27372;-76
2023/08/17 01:08:51;;;;;;;3.67;1.37;;;20.30;99.90;;;;;;950996;147;27379;-75
2023/08/17 01:11:27;;;;;;;4.40;1.90;;;20.30;99.90;;;;;;950818;147;27325;-75
2023/08/17 01:13:53;;;;;;;1.62;1.52;;;20.30;99.90;;;;;;951520;147;27351;-74
2023/08/17 01:16:38;;;;;;;1.70;1.60;;;20.30;99.90;;;;;;950505;147;27305;-75
2023/08/17 01:19:05;;;;;;;3.42;1.55;;;20.30;99.90;;;;;;951335;147;27331;-73
2023/08/17 01:21:31;;;;;;;2.00;1.90;;;20.20;99.90;;;;;;950670;147;27367;-73
2023/08/17 01:24:01;;;;;;;2.70;1.60;;;20.20;99.90;;;;;;950805;147;27402;-73
2023/08/17 01:26:24;;;;;;;1.70;1.60;;;20.20;99.90;;;;;;950592;147;27313;-73
2023/08/17 01:28:51;;;;;;;3.00;1.80;;;20.20;99.90;;;;;;950962;147;27450;-75
2023/08/17 01:31:33;;;;;;;9.98;2.50;;;20.10;99.90;;;;;;951245;147;27335;-75
2023/08/17 01:33:59;;;;;;;2.75;1.80;;;20.20;99.90;;;;;;950520;147;27303;-73
2023/08/17 01:36:26;;;;;;;4.03;1.98;;;20.10;99.90;;;;;;949973;147;27611;-74
2023/08/17 01:38:52;;;;;;;2.98;1.80;;;20.20;99.90;;;;;;950473;147;27300;-74
2023/08/17 01:41:19;;;;;;;2.15;1.65;;;20.10;99.90;;;;;;950884;147;27332;-75
2023/08/17 01:43:46;;;;;;;2.60;2.00;;;20.10;99.90;;;;;;950663;147;27339;-74
2023/08/17 01:46:17;;;;;;;5.20;2.17;;;20.10;99.90;;;;;;951426;147;27298;-73
2023/08/17 01:48:44;;;;;;;3.17;2.20;;;20.10;99.90;;;;;;950851;147;27669;-74
2023/08/17 01:51:11;;;;;;;1.90;1.80;;;20.10;99.90;;;;;;951016;147;27894;-74
2023/08/17 01:53:37;;;;;;;2.20;2.00;;;20.10;99.90;;;;;;927726;150;27433;-76
2023/08/17 01:56:04;;;;;;;2.60;2.25;;;20.10;99.90;;;;;;934973;150;27317;-74
2023/08/17 01:58:30;;;;;;;4.50;2.33;;;20.00;99.90;;;;;;926757;150;27334;-75
2023/08/17 02:00:57;;;;;;;2.75;2.08;;;20.00;99.90;;;;;;951126;147;27425;-75
2023/08/17 02:03:24;;;;;;;3.45;2.60;;;20.00;99.90;;;;;;951118;147;27393;-75
2023/08/17 02:05:50;;;;;;;3.47;2.45;;;20.00;99.90;;;;;;951127;147;27324;-75
2023/08/17 02:08:17;;;;;;;2.50;2.30;;;20.00;99.90;;;;;;950801;147;27352;-74
2023/08/17 02:10:43;;;;;;;2.55;2.37;;;19.90;99.90;;;;;;951741;147;27369;-76
2023/08/17 02:13:10;;;;;;;2.37;2.17;;;19.90;99.90;;;;;;951336;147;27339;-74
2023/08/17 02:15:39;;;;;;;3.00;2.70;;;20.00;99.90;;;;;;951124;147;27318;-75
2023/08/17 02:18:06;;;;;;;2.45;2.30;;;19.90;99.90;;;;;;951559;147;27351;-75
2023/08/17 02:20:33;;;;;;;2.92;2.40;;;19.90;99.90;;;;;;943086;149;27334;-75
2023/08/17 02:22:59;;;;;;;2.72;2.47;;;19.90;99.90;;;;;;934612;150;27366;-74
2023/08/17 02:25:26;;;;;;;2.70;2.50;;;19.90;99.90;;;;;;927012;150;27365;-74
2023/08/17 02:27:52;;;;;;;3.60;2.37;;;19.90;99.90;;;;;;951002;147;27297;-75
2023/08/17 02:30:19;;;;;;;3.55;2.47;;;19.90;99.90;;;;;;950998;147;27362;-75
2023/08/17 02:32:46;;;;;;;3.72;2.67;;;19.90;99.90;;;;;;952017;147;27352;-76
2023/08/17 02:35:12;;;;;;;4.53;2.87;;;19.90;99.90;;;;;;950983;147;27344;-74
2023/08/17 02:37:39;;;;;;;4.50;2.83;;;19.90;99.90;;;;;;950582;147;27400;-75
2023/08/17 02:40:06;;;;;;;3.12;2.83;;;19.90;99.90;;;;;;951225;147;27266;-74
2023/08/17 02:42:32;;;;;;;3.37;3.17;;;19.90;99.90;;;;;;950990;147;27265;-75
2023/08/17 02:44:59;;;;;;;3.62;3.33;;;19.80;99.90;;;;;;951567;147;27333;-76
2023/08/17 02:47:25;;;;;;;6.67;3.60;;;19.90;99.90;;;;;;951133;147;27353;-74
2023/08/17 02:49:52;;;;;;;3.58;3.30;;;19.90;99.90;;;;;;950702;147;27249;-74
2023/08/17 02:52:19;;;;;;;3.62;3.30;;;19.80;99.90;;;;;;951179;147;27523;-75
2023/08/17 02:54:45;;;;;;;3.85;3.33;;;19.80;99.90;;;;;;950956;147;27398;-75
2023/08/17 02:57:12;;;;;;;3.45;3.15;;;19.80;99.90;;;;;;950721;147;27356;-75
2023/08/17 02:59:38;;;;;;;4.78;4.12;;;19.90;99.90;;;;;;951278;147;27776;-74
2023/08/17 03:02:05;;;;;;;4.53;4.12;;;19.80;99.90;;;;;;950320;147;27446;-74
2023/08/17 03:04:32;;;;;;;4.83;4.10;;;19.80;99.90;;;;;;951214;147;27313;-75
2023/08/17 03:06:58;;;;;;;3.52;3.22;;;19.80;99.90;;;;;;951616;147;27462;-76
2023/08/17 03:09:25;;;;;;;3.67;3.37;;;19.90;99.90;;;;;;951451;147;27388;-74
2023/08/17 03:11:52;;;;;;;3.27;3.02;;;19.90;99.90;;;;;;951205;147;27370;-76
2023/08/17 03:14:18;;;;;;;3.20;2.90;;;19.90;99.90;;;;;;951396;147;27894;-75
2023/08/17 03:16:44;;;;;;;3.12;2.92;;;20.00;99.90;;;;;;950776;147;27390;-76
2023/08/17 03:19:11;;;;;;;2.83;2.62;;;20.00;99.90;;;;;;950748;147;27417;-75
2023/08/17 03:21:38;;;;;;;2.87;2.52;;;20.10;99.90;;;;;;951452;147;27340;-74
2023/08/17 03:24:04;;;;;;;3.00;2.80;;;20.10;99.90;;;;;;951084;147;27346;-75
2023/08/17 03:26:31;;;;;;;2.95;2.72;;;20.20;99.90;;;;;;951980;147;27420;-75
2023/08/17 03:28:57;;;;;;;3.67;3.37;;;20.30;99.90;;;;;;951289;147;27315;-76
2023/08/17 03:31:24;;;;;;;5.45;2.85;;;20.30;99.90;;;;;;950103;147;27340;-75
2023/08/17 03:33:51;;;;;;;3.33;3.02;;;20.40;99.90;;;;;;951372;147;27301;-75
2023/08/17 03:36:17;;;;;;;3.72;3.40;;;20.40;99.90;;;;;;950874;147;27335;-75
2023/08/17 03:38:44;;;;;;;5.47;4.97;;;20.50;99.90;;;;;;951004;147;27305;-75
2023/08/17 03:41:10;;;;;;;5.83;5.37;;;20.50;99.90;;;;;;951150;147;27325;-76
2023/08/17 03:43:37;;;;;;;6.20;5.70;;;20.50;99.90;;;;;;950992;147;27354;-75
2023/08/17 03:46:04;;;;;;;5.45;4.95;;;20.60;99.90;;;;;;951193;147;27411;-76
2023/08/17 03:48:30;;;;;;;4.95;4.58;;;20.60;99.90;;;;;;950934;147;27268;-75
2023/08/17 03:50:57;;;;;;;4.03;3.72;;;20.60;99.90;;;;;;951696;147;27318;-75
2023/08/17 03:53:23;;;;;;;4.30;3.90;;;20.60;99.90;;;;;;951370;147;27688;-76
2023/08/17 03:55:50;;;;;;;5.85;5.20;;;20.60;99.90;;;;;;951369;147;27333;-75
2023/08/17 03:58:17;;;;;;;5.40;4.92;;;20.60;99.90;;;;;;950823;147;27308;-76
2023/08/17 04:00:43;;;;;;;6.92;6.22;;;20.60;99.90;;;;;;951192;147;27246;-76
2023/08/17 04:03:10;;;;;;;6.70;6.10;;;20.60;99.90;;;;;;949929;147;27422;-75
2023/08/17 04:05:36;;;;;;;5.90;5.40;;;20.60;99.90;;;;;;951319;147;27855;-75
2023/08/17 04:08:03;;;;;;;6.17;5.67;;;20.60;99.90;;;;;;950540;147;27355;-75
2023/08/17 04:10:29;;;;;;;6.22;5.30;;;20.60;99.90;;;;;;933573;150;27432;-75
2023/08/17 04:12:56;;;;;;;6.00;5.50;;;20.60;99.90;;;;;;950449;147;27334;-76
2023/08/17 04:15:23;;;;;;;6.62;6.08;;;20.60;99.90;;;;;;950496;147;27417;-76
2023/08/17 04:17:49;;;;;;;6.55;5.97;;;20.60;99.90;;;;;;927063;150;27485;-76
2023/08/17 04:20:16;;;;;;;6.45;5.85;;;20.60;99.90;;;;;;952141;147;27341;-76
2023/08/17 04:22:42;;;;;;;6.58;5.92;;;20.60;99.90;;;;;;951328;147;27392;-77
2023/08/17 04:25:09;;;;;;;6.58;5.97;;;20.50;99.90;;;;;;950455;147;27374;-75
2023/08/17 04:27:36;;;;;;;6.28;5.17;;;20.50;99.90;;;;;;951435;147;27425;-76
2023/08/17 04:30:02;;;;;;;6.35;5.75;;;20.50;99.90;;;;;;951133;147;27316;-77
2023/08/17 04:32:29;;;;;;;5.92;5.53;;;20.50;99.90;;;;;;951024;147;27336;-77
2023/08/17 04:34:55;;;;;;;7.22;6.62;;;20.40;99.90;;;;;;950200;147;27828;-77
2023/08/17 04:37:22;;;;;;;5.58;5.10;;;20.40;99.90;;;;;;950494;147;27466;-75
2023/08/17 04:39:49;;;;;;;5.15;4.75;;;20.40;99.90;;;;;;950688;147;27429;-77
2023/08/17 04:42:15;;;;;;;4.53;4.17;;;20.40;99.90;;;;;;950784;147;27250;-77
2023/08/17 04:44:42;;;;;;;5.72;4.50;;;20.40;99.90;;;;;;949987;147;27389;-77
2023/08/17 04:47:08;;;;;;;4.22;3.92;;;20.40;99.90;;;;;;950464;147;27405;-76
2023/08/17 04:49:35;;;;;;;4.22;3.85;;;20.50;99.90;;;;;;951924;147;27352;-77
2023/08/17 04:52:02;;;;;;;4.58;3.72;;;20.50;99.90;;;;;;950315;147;27410;-75
2023/08/17 04:54:28;;;;;;;3.60;3.30;;;20.60;99.90;;;;;;951708;147;27451;-77
2023/08/17 04:56:55;;;;;;;3.75;3.45;;;20.60;99.90;;;;;;950701;147;27280;-76
2023/08/17 04:59:21;;;;;;;3.58;3.27;;;20.60;99.90;;;;;;950945;147;27344;-75
2023/08/17 05:01:48;;;;;;;3.47;3.17;;;20.80;99.90;;;;;;951094;147;27344;-77
2023/08/17 05:04:15;;;;;;;3.85;3.55;;;20.80;99.90;;;;;;950378;147;27365;-77
2023/08/17 05:06:42;;;;;;;5.03;3.50;;;20.90;99.90;;;;;;951002;147;27244;-77
2023/08/17 05:09:08;;;;;;;4.87;4.37;;;21.00;99.90;;;;;;955231;145;27319;-76
2023/08/17 05:11:34;;;;;;;4.35;3.95;;;21.10;99.90;;;;;;964081;145;27407;-77
2023/08/17 05:14:01;;;;;;;7.92;4.67;;;21.30;99.90;;;;;;964062;145;27816;-77
2023/08/17 05:16:27;;;;;;;7.95;5.17;;;21.40;99.90;;;;;;943741;149;27351;-77
2023/08/17 05:18:54;;;;;;;4.65;4.25;;;21.60;99.90;;;;;;963923;146;27331;-77
2023/08/17 05:21:21;;;;;;;5.40;4.62;;;21.80;99.90;;;;;;963277;146;27338;-77
2023/08/17 05:23:47;;;;;;;15.18;4.90;;;22.00;99.90;;;;;;964006;146;28346;-77
2023/08/17 05:26:14;;;;;;;14.40;4.95;;;22.10;99.90;;;;;;967317;145;27227;-77
2023/08/17 05:28:41;;;;;;;10.50;4.95;;;22.20;99.90;;;;;;963760;146;27396;-77
2023/08/17 05:31:07;;;;;;;4.42;4.03;;;22.30;99.90;;;;;;963540;146;27330;-76
2023/08/17 05:33:34;;;;;;;5.10;4.60;;;22.30;99.90;;;;;;964132;146;27422;-77
2023/08/17 05:36:00;;;;;;;4.55;4.15;;;22.40;99.90;;;;;;964229;146;27374;-77
2023/08/17 05:38:27;;;;;;;3.92;3.62;;;22.50;99.90;;;;;;963352;145;27327;-78
2023/08/17 05:40:56;;;;;;;3.47;3.17;;;22.70;99.90;;;;;;963808;145;27303;-77
2023/08/17 05:43:23;;;;;;;2.55;2.42;;;22.90;99.90;;;;;;964069;146;27360;-78
2023/08/17 05:45:49;;;;;;;2.17;2.08;;;23.20;99.90;;;;;;957369;147;27368;-78
2023/08/17 05:48:16;;;;;;;2.47;2.30;;;23.40;99.90;;;;;;940241;149;27350;-77
2023/08/17 05:50:42;;;;;;;3.25;2.50;;;23.60;99.90;;;;;;964676;145;27326;-78
2023/08/17 05:53:09;;;;;;;2.70;2.50;;;23.70;99.90;;;;;;964066;145;27293;-76
2023/08/17 05:55:35;;;;;;;2.20;2.00;;;23.80;99.90;;;;;;963263;145;27322;-78
2023/08/17 05:58:03;;;;;;;2.90;2.70;;;23.80;99.90;;;;;;963686;145;27285;-77
2023/08/17 06:00:29;;;;;;;2.52;2.42;;;23.70;99.90;;;;;;963401;146;27427;-78
2023/08/17 06:03:00;;;;;;;2.92;2.72;;;23.60;99.90;;;;;;962849;146;27295;-77
2023/08/17 06:05:22;;;;;;;3.10;2.80;;;23.50;99.90;;;;;;962053;145;27361;-77
2023/08/17 06:07:48;;;;;;;3.12;2.85;;;23.30;99.90;;;;;;964149;145;27240;-77
2023/08/17 06:10:15;;;;;;;2.75;2.55;;;23.20;99.90;;;;;;956529;145;27341;-77
2023/08/17 06:12:42;;;;;;;2.90;2.70;;;23.10;99.90;;;;;;951188;147;27284;-77
2023/08/17 06:15:08;;;;;;;2.95;2.75;;;23.00;99.90;;;;;;950843;147;27426;-78
2023/08/17 06:17:35;;;;;;;2.70;2.50;;;22.90;99.90;;;;;;927092;150;29529;-76
2023/08/17 06:20:03;;;;;;;3.83;2.90;;;22.80;99.90;;;;;;950780;147;27309;-76
2023/08/17 06:22:28;;;;;;;3.12;2.92;;;22.70;99.90;;;;;;950530;147;27313;-76
2023/08/17 06:24:55;;;;;;;3.58;2.50;;;22.60;99.90;;;;;;951351;147;27364;-75
2023/08/17 06:27:21;;;;;;;4.10;3.00;;;22.60;99.90;;;;;;951233;147;27426;-76
2023/08/17 06:29:50;;;;;;;2.85;2.65;;;22.50;99.90;;;;;;950631;147;27309;-76
2023/08/17 06:32:14;;;;;;;2.60;2.45;;;22.50;99.90;;;;;;950350;147;27269;-74
2023/08/17 06:34:42;;;;;;;2.67;2.47;;;22.50;99.90;;;;;;949252;147;27398;-75
2023/08/17 06:37:08;;;;;;;2.75;2.42;;;22.50;99.90;;;;;;950327;147;27965;-73
2023/08/17 06:39:34;;;;;;;3.90;2.83;;;22.50;99.90;;;;;;950176;147;27359;-74
2023/08/17 06:42:01;;;;;;;2.75;2.55;;;22.50;99.90;;;;;;950957;147;27269;-75
2023/08/17 06:44:28;;;;;;;2.37;2.27;;;22.50;99.90;;;;;;950140;147;27950;-75
2023/08/17 06:46:54;;;;;;;3.35;3.08;;;22.50;99.90;;;;;;951316;147;27442;-76
2023/08/17 06:49:21;;;;;;;3.47;3.17;;;22.60;99.90;;;;;;950747;147;27333;-73
2023/08/17 06:51:47;;;;;;;2.90;2.70;;;22.60;99.90;;;;;;949675;147;27782;-74
2023/08/17 06:54:14;;;;;;;3.00;2.80;;;22.70;99.90;;;;;;950641;148;27378;-75
2023/08/17 06:56:40;;;;;;;3.33;3.02;;;22.90;99.90;;;;;;949914;147;27316;-75
2023/08/17 06:59:07;;;;;;;3.87;3.58;;;23.00;99.90;;;;;;950083;147;28323;-75
2023/08/17 07:01:33;;;;;;;3.55;3.30;;;23.10;99.90;;;;;;949597;147;27341;-74
2023/08/17 07:04:00;;;;;;;3.65;3.35;;;23.20;99.90;;;;;;950406;147;27686;-75
2023/08/17 07:06:27;;;;;;;4.05;3.67;;;23.30;99.90;;;;;;950481;147;27250;-74
2023/08/17 07:08:53;;;;;;;3.00;2.80;;;23.40;99.90;;;;;;949341;147;27389;-76
2023/08/17 07:11:20;;;;;;;3.45;3.15;;;23.50;99.90;;;;;;944210;150;27408;-75
2023/08/17 07:13:46;;;;;;;3.50;3.17;;;23.50;99.90;;;;;;947639;148;27237;-74
2023/08/17 07:16:13;;;;;;;3.47;3.17;;;23.60;99.90;;;;;;939029;152;27461;-74
2023/08/17 07:18:40;;;;;;;3.35;2.80;;;23.60;99.90;;;;;;937807;152;27359;-74
2023/08/17 07:21:06;;;;;;;3.65;3.22;;;23.80;99.90;;;;;;937878;152;27363;-76
2023/08/17 07:23:33;;;;;;;3.67;3.37;;;23.80;99.90;;;;;;937579;152;27769;-74
2023/08/17 07:25:59;;;;;;;3.62;3.33;;;23.90;99.90;;;;;;929056;150;27323;-75
2023/08/17 07:28:26;;;;;;;3.08;2.87;;;23.90;99.90;;;;;;953216;148;27317;-75
2023/08/17 07:30:53;;;;;;;4.00;3.65;;;24.10;99.90;;;;;;954901;148;27370;-75
2023/08/17 07:33:19;;;;;;;3.77;3.42;;;24.10;99.90;;;;;;952443;148;27675;-73
2023/08/17 07:35:46;;;;;;;3.67;3.47;;;24.20;99.90;;;;;;954304;148;28058;-74
2023/08/17 07:38:12;;;;;;;3.45;3.15;;;24.30;99.90;;;;;;953605;148;27398;-75
2023/08/17 07:40:39;;;;;;;3.95;3.62;;;24.30;99.90;;;;;;954620;148;27296;-76
2023/08/17 07:43:05;;;;;;;3.25;2.95;;;24.30;99.90;;;;;;953632;148;27430;-76
2023/08/17 07:45:32;;;;;;;3.60;3.30;;;24.30;99.90;;;;;;954417;148;28590;-76
2023/08/17 07:47:59;;;;;;;2.83;2.62;;;24.20;99.90;;;;;;953534;148;27320;-76
2023/08/17 07:50:25;;;;;;;3.42;2.92;;;24.30;99.90;;;;;;954731;148;27303;-76
2023/08/17 07:52:52;;;;;;;3.58;2.72;;;24.20;99.90;;;;;;954862;150;27385;-76
2023/08/17 07:55:18;;;;;;;3.27;2.98;;;24.20;99.90;;;;;;954646;148;27429;-76
2023/08/17 07:57:45;;;;;;;3.17;2.87;;;24.20;99.90;;;;;;953737;150;27363;-76
2023/08/17 08:00:12;;;;;;;2.87;2.67;;;24.20;99.90;;;;;;938224;150;27349;-76
2023/08/17 08:02:38;;;;;;;2.90;2.70;;;24.20;99.90;;;;;;954030;148;27421;-76
2023/08/17 08:05:05;;;;;;;3.20;2.92;;;24.20;99.90;;;;;;953290;148;27866;-76
2023/08/17 08:07:32;;;;;;;3.05;2.85;;;24.20;99.90;;;;;;953826;148;27426;-76
2023/08/17 08:09:58;;;;;;;3.22;3.02;;;24.20;99.90;;;;;;954714;148;27440;-76
2023/08/17 08:12:25;;;;;;;3.60;2.90;;;24.30;99.90;;;;;;963089;145;27408;-76
2023/08/17 08:14:51;;;;;;;2.65;2.47;;;24.30;99.90;;;;;;963458;145;27431;-76
2023/08/17 08:17:19;;;;;;;3.62;3.33;;;24.40;99.90;;;;;;964941;145;27373;-76
2023/08/17 08:19:45;;;;;;;2.42;2.30;;;24.40;99.90;;;;;;963632;146;27744;-76
2023/08/17 08:22:11;;;;;;;4.53;2.37;;;24.50;99.90;;;;;;964426;146;27299;-76
2023/08/17 08:24:40;;;;;;;3.05;2.25;;;24.50;99.90;;;;;;963435;145;27419;-76
2023/08/17 08:27:04;;;;;;;2.92;2.42;;;24.60;99.90;;;;;;963350;145;27318;-76
2023/08/17 08:29:31;;;;;;;2.75;2.55;;;24.70;99.90;;;;;;963514;146;27432;-76
2023/08/17 08:31:59;;;;;;;2.87;2.47;;;24.80;99.90;;;;;;963151;145;27343;-76
2023/08/17 08:34:24;;;;;;;2.65;2.50;;;24.90;99.90;;;;;;964262;146;27323;-76
2023/08/17 08:36:51;;;;;;;2.58;2.37;;;25.00;99.90;;;;;;964262;145;27346;-76
2023/08/17 08:39:17;;;;;;;2.45;2.35;;;25.10;99.90;;;;;;964238;146;27259;-76
2023/08/17 08:41:44;;;;;;;3.00;2.60;;;25.30;99.90;;;;;;964056;145;27335;-76
2023/08/17 08:44:10;;;;;;;2.80;2.17;;;25.40;99.90;;;;;;964289;146;27343;-77
2023/08/17 08:46:37;;;;;;;3.83;2.50;;;25.60;99.90;;;;;;963578;145;27303;-77
2023/08/17 08:49:04;;;;;;;2.72;2.52;;;25.80;99.90;;;;;;963923;145;27307;-76
2023/08/17 08:51:30;;;;;;;2.37;2.17;;;26.10;99.90;;;;;;963645;146;27331;-76
2023/08/17 08:54:03;;;;;;;3.60;2.35;;;26.30;99.90;;;;;;947173;148;27441;-77
2023/08/17 08:56:29;;;;;;;3.27;2.02;;;26.50;99.90;;;;;;946967;148;27333;-77
2023/08/17 08:58:56;;;;;;;2.60;2.15;;;26.70;99.90;;;;;;963412;146;27281;-77
2023/08/17 09:01:22;;;;;;;2.58;2.37;;;26.90;99.90;;;;;;964217;145;27354;-77
2023/08/17 09:03:49;;;;;;;2.25;2.10;;;27.10;99.90;;;;;;964119;146;27344;-77
2023/08/17 09:06:15;;;;;;;3.10;2.27;;;27.20;99.20;;;;;;963194;145;27774;-77
2023/08/17 09:08:42;;;;;;;2.55;2.35;;;27.30;98.40;;;;;;963912;145;27359;-77
2023/08/17 09:11:09;;;;;;;2.85;2.60;;;27.30;97.60;;;;;;946464;149;27357;-77
2023/08/17 09:13:35;;;;;;;2.70;2.30;;;27.40;97.70;;;;;;945376;149;27350;-77
2023/08/17 09:16:02;;;;;;;2.50;2.30;;;27.40;97.40;;;;;;964343;145;27271;-77
2023/08/17 09:18:28;;;;;;;2.40;2.20;;;27.50;97.30;;;;;;963539;145;27332;-77
2023/08/17 09:20:55;;;;;;;5.83;2.60;;;27.50;97.10;;;;;;964212;146;27347;-77
2023/08/17 09:23:22;;;;;;;2.35;2.25;;;27.60;97.00;;;;;;964407;146;27350;-77
2023/08/17 09:25:49;;;;;;;2.60;2.40;;;27.70;96.50;;;;;;947238;148;27321;-77
2023/08/17 09:28:18;;;;;;;2.50;2.30;;;27.70;96.00;;;;;;946651;149;27341;-77
2023/08/17 09:30:53;;;;;;;2.22;2.02;;;27.80;95.50;;;;;;946894;149;27403;-77
2023/08/17 09:33:20;;;;;;;2.58;2.30;;;27.90;95.80;;;;;;944837;149;27354;-77
2023/08/17 09:35:46;;;;;;;2.15;2.05;;;27.90;95.60;;;;;;944546;148;27335;-77
2023/08/17 09:38:13;;;;;;;2.00;1.90;;;28.00;95.30;;;;;;957519;147;27319;-77
2023/08/17 09:40:39;;;;;;;2.40;2.20;;;28.20;95.50;;;;;;964354;146;27831;-77
2023/08/17 09:43:06;;;;;;;2.67;2.40;;;28.30;95.10;;;;;;963656;145;27441;-77
2023/08/17 09:45:33;;;;;;;2.20;2.08;;;28.50;94.40;;;;;;963645;145;28454;-77
2023/08/17 09:48:00;;;;;;;2.55;2.40;;;28.70;94.20;;;;;;962986;145;27428;-77
2023/08/17 09:50:26;;;;;;;2.85;1.80;;;28.80;93.10;;;;;;963516;145;27446;-77
2023/08/17 09:52:55;;;;;;;2.02;1.92;;;29.00;92.70;;;;;;964041;146;27413;-77
2023/08/17 09:55:24;;;;;;;2.42;1.80;;;29.30;92.80;;;;;;964402;145;27302;-76
2023/08/17 09:57:51;;;;;;;1.95;1.85;;;29.50;93.10;;;;;;963251;145;27404;-76
2023/08/17 10:00:17;;;;;;;1.92;1.82;;;29.80;91.60;;;;;;963825;146;27328;-77
2023/08/17 10:02:44;;;;;;;1.77;1.67;;;30.00;90.60;;;;;;963820;145;27345;-77
2023/08/17 10:05:11;;;;;;;2.00;1.65;;;30.20;90.60;;;;;;963189;145;27343;-77
2023/08/17 10:07:37;;;;;;;1.65;1.55;;;30.50;91.10;;;;;;945597;148;27318;-77
2023/08/17 10:10:04;;;;;;;1.22;1.22;;;30.70;91.50;;;;;;949871;146;27333;-77
2023/08/17 10:12:30;;;;;;;1.50;1.40;;;31.10;90.00;;;;;;963192;145;27327;-77
2023/08/17 10:14:59;;;;;;;1.42;1.32;;;31.50;86.00;;;;;;963328;145;27362;-77
2023/08/17 10:17:27;;;;;;;1.80;1.70;;;31.70;83.50;;;;;;963707;146;27267;-77
2023/08/17 10:19:58;;;;;;;1.37;1.30;;;32.00;81.00;;;;;;963985;146;27284;-77
2023/08/17 10:22:38;;;;;;;1.50;1.40;;;32.10;79.80;;;;;;963790;146;27339;-77
2023/08/17 10:25:03;;;;;;;1.57;1.47;;;32.20;77.80;;;;;;963374;145;27320;-77
2023/08/17 10:27:30;;;;;;;2.98;1.50;;;32.30;76.20;;;;;;963858;146;27424;-77
2023/08/17 10:29:56;;;;;;;1.50;1.40;;;32.30;74.30;;;;;;964024;146;27317;-77
2023/08/17 10:32:23;;;;;;;2.80;1.70;;;32.30;73.50;;;;;;963137;145;27335;-77
2023/08/17 10:34:50;;;;;;;2.15;2.02;;;32.30;72.90;;;;;;946367;149;27394;-77
2023/08/17 10:37:16;;;;;;;2.25;1.70;;;32.30;71.90;;;;;;944534;149;26310;-77
2023/08/17 10:39:46;;;;;;;1.62;1.52;;;32.20;71.10;;;;;;963895;146;27352;-77
2023/08/17 10:42:12;;;;;;;2.65;1.87;;;32.20;71.60;;;;;;963844;146;27436;-77
2023/08/17 10:44:44;;;;;;;1.60;1.50;;;32.00;71.10;;;;;;964524;145;27365;-77
2023/08/17 10:47:26;;;;;;;2.10;1.90;;;32.00;71.10;;;;;;963473;145;27322;-77
2023/08/17 10:49:55;;;;;;;2.12;1.82;;;31.90;70.50;;;;;;963824;146;27347;-77
2023/08/17 10:52:28;;;;;;;1.87;1.67;;;31.80;70.30;;;;;;963600;145;27334;-76
2023/08/17 10:54:56;;;;;;;1.70;1.52;;;31.70;70.20;;;;;;964688;145;26269;-77
2023/08/17 10:57:33;;;;;;;1.45;1.35;;;31.60;70.40;;;;;;964060;145;27245;-77
2023/08/17 11:00:24;;;;;;;2.08;1.40;;;31.60;71.20;;;;;;963508;146;27342;-77
2023/08/17 11:02:44;;;;;;;1.55;1.45;;;31.50;71.20;;;;;;945136;149;27486;-76
2023/08/17 11:05:13;;;;;;;1.80;1.70;;;31.40;71.00;;;;;;944998;149;27272;-76
2023/08/17 11:07:40;;;;;;;1.65;1.55;;;31.30;70.90;;;;;;963346;145;27382;-76
2023/08/17 11:10:19;;;;;;;1.75;1.60;;;31.30;70.70;;;;;;946935;148;27437;-76
2023/08/17 11:12:45;;;;;;;2.75;1.60;;;31.20;70.60;;;;;;961023;146;27393;-76
2023/08/17 11:15:12;;;;;;;1.40;1.40;;;31.10;71.20;;;;;;926368;150;28023;-76
2023/08/17 11:17:38;;;;;;;1.70;1.60;;;31.10;71.40;;;;;;951084;147;27341;-76
2023/08/17 11:20:05;;;;;;;2.10;1.90;;;31.10;71.90;;;;;;951225;147;27327;-76
2023/08/17 11:22:32;;;;;;;1.72;1.62;;;31.00;71.30;;;;;;934020;150;27498;-77
2023/08/17 11:24:58;;;;;;;1.75;1.40;;;31.00;71.00;;;;;;926553;150;27357;-77
2023/08/17 11:27:25;;;;;;;1.40;1.30;;;30.90;71.20;;;;;;951233;147;27406;-76
2023/08/17 11:29:52;;;;;;;2.58;1.90;;;30.80;71.60;;;;;;950674;147;27974;-77
2023/08/17 11:32:19;;;;;;;1.90;1.80;;;30.80;71.40;;;;;;950790;147;27711;-76
2023/08/17 11:34:45;;;;;;;1.80;1.50;;;30.80;71.30;;;;;;950365;147;27324;-77
2023/08/17 11:37:14;;;;;;;2.08;1.62;;;30.80;71.70;;;;;;950857;147;27442;-77
2023/08/17 11:39:41;;;;;;;1.60;1.50;;;30.70;72.40;;;;;;949216;147;27340;-76
2023/08/17 11:42:07;;;;;;;2.15;1.90;;;30.70;72.30;;;;;;950678;147;27294;-76
2023/08/17 11:44:34;;;;;;;2.00;1.80;;;30.70;72.60;;;;;;950690;147;27479;-76
2023/08/17 11:47:01;;;;;;;1.90;1.80;;;30.80;72.60;;;;;;949820;147;27418;-77
2023/08/17 11:49:27;;;;;;;1.75;1.65;;;30.70;72.00;;;;;;949511;147;27311;-77
2023/08/17 11:51:54;;;;;;;2.35;1.95;;;30.70;72.50;;;;;;949230;147;27294;-77
2023/08/17 11:54:21;;;;;;;3.87;2.00;;;30.70;71.90;;;;;;950134;147;27419;-77
2023/08/17 11:56:47;;;;;;;1.98;1.72;;;30.70;72.10;;;;;;950649;147;27344;-77
2023/08/17 11:59:20;;;;;;;2.85;1.80;;;30.70;72.00;;;;;;936842;149;27341;-77
2023/08/17 12:01:46;;;;;;;3.87;2.10;;;30.70;72.00;;;;;;948750;147;27444;-77
2023/08/17 12:04:13;;;;;;;2.08;1.87;;;30.60;71.30;;;;;;949318;147;27326;-76
2023/08/17 12:06:39;;;;;;;2.08;1.62;;;30.60;71.50;;;;;;950605;147;27859;-76
2023/08/17 12:09:06;;;;;;;3.50;1.80;;;30.60;71.70;;;;;;950845;147;27466;-76
2023/08/17 12:11:33;;;;;;;2.00;1.90;;;30.50;72.10;;;;;;950928;147;27431;-77
2023/08/17 12:13:59;;;;;;;2.00;1.90;;;30.50;72.20;;;;;;957470;146;27449;-76
2023/08/17 12:16:26;;;;;;;2.27;2.08;;;30.60;72.00;;;;;;963169;145;27312;-76
2023/08/17 12:18:52;;;;;;;2.27;2.00;;;30.60;71.60;;;;;;964650;145;27447;-77
2023/08/17 12:21:22;;;;;;;2.05;1.95;;;30.60;71.60;;;;;;964144;146;27432;-76
2023/08/17 12:23:48;;;;;;;2.08;1.80;;;30.60;71.60;;;;;;964118;146;27428;-77
2023/08/17 12:26:21;;;;;;;2.33;2.00;;;30.60;71.50;;;;;;964570;145;27389;-77
2023/08/17 12:28:48;;;;;;;2.10;1.98;;;30.60;71.70;;;;;;963694;145;27458;-77
2023/08/17 12:31:14;;;;;;;2.25;2.05;;;30.60;71.60;;;;;;964347;145;27440;-77
2023/08/17 12:33:41;;;;;;;2.45;2.25;;;30.70;71.60;;;;;;962620;146;27408;-77
2023/08/17 12:36:08;;;;;;;2.10;2.00;;;30.80;71.40;;;;;;963959;145;27311;-77
2023/08/17 12:38:34;;;;;;;2.20;2.10;;;30.90;71.20;;;;;;964558;146;27319;-77
2023/08/17 12:41:01;;;;;;;1.90;1.77;;;30.90;71.00;;;;;;964361;146;27343;-77
2023/08/17 12:43:27;;;;;;;1.98;1.87;;;31.00;71.40;;;;;;963920;146;28321;-77